createdAt,value
2023-02-26T00:02:20.825Z,49.51
2023-02-26T00:04:47.459Z,49.86
2023-02-26T00:07:13.977Z,49.46
2023-02-26T00:09:40.532Z,49.75
2023-02-26T00:12:07.445Z,49.76
2023-02-26T00:14:34.295Z,50.00
2023-02-26T00:17:36.175Z,49.91
2023-02-26T00:20:03.786Z,49.68
2023-02-26T00:22:30.644Z,49.64
2023-02-26T00:24:57.304Z,49.95
2023-02-26T00:27:23.948Z,49.79
2023-02-26T00:29:50.862Z,49.50
2023-02-26T00:32:20.601Z,49.79
2023-02-26T00:34:48.402Z,49.27
2023-02-26T00:37:36.734Z,49.93
2023-02-26T00:40:29.763Z,49.21
2023-02-26T00:42:56.620Z,49.34
2023-02-26T00:45:23.515Z,49.70
2023-02-26T00:48:09.056Z,48.90
2023-02-26T00:50:36.308Z,49.27
2023-02-26T00:53:09.222Z,48.76
2023-02-26T00:55:35.717Z,49.24
2023-02-26T00:58:02.371Z,49.01
2023-02-26T01:00:29.599Z,49.05
2023-02-26T01:02:57.327Z,48.88
2023-02-26T01:05:24.583Z,49.10
2023-02-26T01:08:05.433Z,48.72
2023-02-26T01:10:32.833Z,49.10
2023-02-26T01:12:59.765Z,49.35
2023-02-26T01:15:27.021Z,49.10
2023-02-26T01:18:09.920Z,49.21
2023-02-26T01:20:44.825Z,49.96
2023-02-26T01:23:16.537Z,49.74
2023-02-26T01:25:55.733Z,50.41
2023-02-26T01:28:22.458Z,51.15
2023-02-26T01:30:50.421Z,50.51
2023-02-26T01:33:32.044Z,51.35
2023-02-26T01:36:08.390Z,49.76
2023-02-26T01:39:04.498Z,50.54
2023-02-26T01:41:48.477Z,49.91
2023-02-26T01:44:22.216Z,49.32
2023-02-26T01:47:20.810Z,49.28
2023-02-26T01:49:48.136Z,49.04
2023-02-26T01:52:50.287Z,49.03
2023-02-26T01:55:20.602Z,49.71
2023-02-26T01:57:48.363Z,49.90
2023-02-26T02:00:16.268Z,49.94
2023-02-26T02:02:43.094Z,49.79
2023-02-26T02:05:27.234Z,49.89
2023-02-26T02:07:53.797Z,49.64
2023-02-26T02:10:20.439Z,50.05
2023-02-26T02:13:02.071Z,49.03
2023-02-26T02:16:00.543Z,48.98
2023-02-26T02:19:00.873Z,49.46
2023-02-26T02:21:58.628Z,48.89
2023-02-26T02:24:40.073Z,48.72
2023-02-26T02:27:22.232Z,49.23
2023-02-26T02:30:23.434Z,48.36
2023-02-26T02:32:59.575Z,48.30
2023-02-26T02:35:36.084Z,47.94
2023-02-26T02:38:19.184Z,47.62
2023-02-26T02:40:51.616Z,47.88
2023-02-26T02:43:25.428Z,47.92
2023-02-26T02:46:27.093Z,48.02
2023-02-26T02:49:04.153Z,48.14
2023-02-26T02:51:39.481Z,48.32
2023-02-26T02:54:23.008Z,48.47
2023-02-26T02:56:56.581Z,48.29
2023-02-26T02:59:43.959Z,48.43
2023-02-26T03:02:21.462Z,48.91
2023-02-26T03:04:48.619Z,48.65
2023-02-26T03:07:15.349Z,48.73
2023-02-26T03:09:43.027Z,48.12
2023-02-26T03:12:11.877Z,48.15
2023-02-26T03:14:39.746Z,48.56
2023-02-26T03:17:14.713Z,48.32
2023-02-26T03:20:05.544Z,48.44
2023-02-26T03:23:11.028Z,48.06
2023-02-26T03:25:56.050Z,48.13
2023-02-26T03:28:36.061Z,48.51
2023-02-26T03:31:40.936Z,47.74
2023-02-26T03:34:16.707Z,47.42
2023-02-26T03:36:57.304Z,48.36
2023-02-26T03:39:34.384Z,48.02
2023-02-26T03:42:19.456Z,47.39
2023-02-26T03:45:06.990Z,47.74
2023-02-26T03:47:36.204Z,48.16
2023-02-26T03:50:08.794Z,47.67
2023-02-26T03:52:49.147Z,48.07
2023-02-26T03:55:37.949Z,47.75
2023-02-26T03:58:27.582Z,47.92
2023-02-26T04:01:22.031Z,47.78
2023-02-26T04:04:04.048Z,47.95
2023-02-26T04:06:32.016Z,48.27
2023-02-26T04:08:58.699Z,47.88
2023-02-26T04:11:26.290Z,47.74
2023-02-26T04:13:52.991Z,47.28
2023-02-26T04:16:19.690Z,48.02
2023-02-26T04:18:46.479Z,47.42
2023-02-26T04:21:15.644Z,47.54
2023-02-26T04:23:42.797Z,48.21
2023-02-26T04:26:09.985Z,47.60
2023-02-26T04:28:40.526Z,47.62
2023-02-26T04:31:07.929Z,47.23
2023-02-26T04:33:34.629Z,47.93
2023-02-26T04:36:01.828Z,47.82
2023-02-26T04:38:29.065Z,47.49
2023-02-26T04:40:55.675Z,47.63
2023-02-26T04:43:23.684Z,47.40
2023-02-26T04:46:09.627Z,47.48
2023-02-26T04:48:36.356Z,47.67
2023-02-26T04:51:03.212Z,47.86
2023-02-26T04:53:29.913Z,47.75
2023-02-26T04:55:56.474Z,47.49
2023-02-26T04:58:23.038Z,47.53
2023-02-26T05:00:51.482Z,47.56
2023-02-26T05:03:18.317Z,47.59
2023-02-26T05:05:45.814Z,47.90
2023-02-26T05:08:12.372Z,47.48
2023-02-26T05:10:39.521Z,47.79
2023-02-26T05:13:06.164Z,47.92
2023-02-26T05:15:33.196Z,47.85
2023-02-26T05:17:59.762Z,47.45
2023-02-26T05:20:26.322Z,47.58
2023-02-26T05:22:53.416Z,47.15
2023-02-26T05:25:20.397Z,47.46
2023-02-26T05:27:47.040Z,47.09
2023-02-26T05:30:15.514Z,47.21
2023-02-26T05:32:43.860Z,46.66
2023-02-26T05:35:11.500Z,47.21
2023-02-26T05:37:38.811Z,47.30
2023-02-26T05:40:09.236Z,46.62
2023-02-26T05:42:35.786Z,46.88
2023-02-26T05:45:02.303Z,46.66
2023-02-26T05:47:28.844Z,47.12
2023-02-26T05:49:55.398Z,46.99
2023-02-26T05:52:21.989Z,47.07
2023-02-26T05:54:48.499Z,47.01
2023-02-26T05:57:15.005Z,46.73
2023-02-26T05:59:41.650Z,46.73
2023-02-26T06:02:08.246Z,47.45
2023-02-26T06:04:35.240Z,47.14
2023-02-26T06:07:02.049Z,46.99
2023-02-26T06:09:28.618Z,47.42
2023-02-26T06:11:55.165Z,47.06
2023-02-26T06:14:21.842Z,47.30
2023-02-26T06:16:48.455Z,47.35
2023-02-26T06:19:15.021Z,47.76
2023-02-26T06:21:41.587Z,47.06
2023-02-26T06:24:08.333Z,47.11
2023-02-26T06:26:35.052Z,46.47
2023-02-26T06:29:02.238Z,46.18
2023-02-26T06:31:28.924Z,46.95
2023-02-26T06:33:55.492Z,47.43
2023-02-26T06:36:22.038Z,47.46
2023-02-26T06:38:48.599Z,46.71
2023-02-26T06:41:15.139Z,46.88
2023-02-26T06:43:41.732Z,46.66
2023-02-26T06:46:08.418Z,46.60
2023-02-26T06:48:35.046Z,45.99
2023-02-26T06:51:01.586Z,45.98
2023-02-26T06:53:28.225Z,46.04
2023-02-26T06:55:54.837Z,46.17
2023-02-26T06:58:21.564Z,46.12
2023-02-26T07:00:48.385Z,45.89
2023-02-26T07:03:17.448Z,45.50
2023-02-26T07:05:45.760Z,45.96
2023-02-26T07:08:13.418Z,45.63
2023-02-26T07:10:40.568Z,45.33
2023-02-26T07:13:07.160Z,45.27
2023-02-26T07:15:33.678Z,45.10
2023-02-26T07:18:00.278Z,45.28
2023-02-26T07:20:27.768Z,45.44
2023-02-26T07:22:54.276Z,45.13
2023-02-26T07:25:21.107Z,44.65
2023-02-26T07:27:47.743Z,44.47
2023-02-26T07:30:14.697Z,44.80
2023-02-26T07:32:41.400Z,45.65
2023-02-26T07:35:08.226Z,44.80
2023-02-26T07:37:34.750Z,44.10
2023-02-26T07:40:01.325Z,43.95
2023-02-26T07:42:27.860Z,44.28
2023-02-26T07:44:54.442Z,45.27
2023-02-26T07:47:21.012Z,45.71
2023-02-26T07:49:47.601Z,44.87
2023-02-26T07:52:14.137Z,44.64
2023-02-26T07:54:40.820Z,44.27
2023-02-26T07:57:07.353Z,44.37
2023-02-26T07:59:33.885Z,44.87
2023-02-26T08:02:00.468Z,44.63
2023-02-26T08:04:27.082Z,44.14
2023-02-26T08:06:57.249Z,44.55
2023-02-26T08:09:23.855Z,44.14
2023-02-26T08:11:50.830Z,43.70
2023-02-26T08:14:17.327Z,43.88
2023-02-26T08:16:43.917Z,43.70
2023-02-26T08:19:10.571Z,44.06
2023-02-26T08:21:37.415Z,44.15
2023-02-26T08:24:04.111Z,45.38
2023-02-26T08:26:30.665Z,45.16
2023-02-26T08:28:57.208Z,45.01
2023-02-26T08:31:23.859Z,44.55
2023-02-26T08:33:50.500Z,45.58
2023-02-26T08:36:17.302Z,45.73
2023-02-26T08:38:43.814Z,45.89
2023-02-26T08:41:10.327Z,44.97
2023-02-26T08:43:36.830Z,44.97
2023-02-26T08:46:03.461Z,44.65
2023-02-26T08:48:30.013Z,44.91
2023-02-26T08:50:56.571Z,44.34
2023-02-26T08:53:23.165Z,44.23
2023-02-26T08:55:51.459Z,44.30
2023-02-26T08:58:18.828Z,44.57
2023-02-26T09:00:45.972Z,43.71
2023-02-26T09:03:13.553Z,43.64
2023-02-26T09:05:40.990Z,43.96
2023-02-26T09:08:08.787Z,44.60
2023-02-26T09:10:35.445Z,43.93
2023-02-26T09:13:02.077Z,43.58
2023-02-26T09:15:28.807Z,43.78
2023-02-26T09:17:57.906Z,44.25
2023-02-26T09:20:24.472Z,43.93
2023-02-26T09:22:51.004Z,44.08
2023-02-26T09:25:17.635Z,44.94
2023-02-26T09:27:44.164Z,44.74
2023-02-26T09:30:11.683Z,44.43
2023-02-26T09:32:38.632Z,43.95
2023-02-26T09:35:05.965Z,44.99
2023-02-26T09:37:32.932Z,44.41
2023-02-26T09:39:59.515Z,43.89
2023-02-26T09:42:32.019Z,43.43
2023-02-26T09:45:00.074Z,43.94
2023-02-26T09:47:46.696Z,43.84
2023-02-26T09:50:22.801Z,44.15
2023-02-26T09:52:59.392Z,43.98
2023-02-26T09:55:34.457Z,44.83
2023-02-26T09:58:05.123Z,44.66
2023-02-26T10:00:48.437Z,44.38
2023-02-26T10:03:27.964Z,44.77
2023-02-26T10:06:19.331Z,44.15
2023-02-26T10:09:07.978Z,43.71
2023-02-26T10:11:53.274Z,44.25
2023-02-26T10:14:28.124Z,43.92
2023-02-26T10:17:28.377Z,43.64
2023-02-26T10:20:02.263Z,44.04
2023-02-26T10:22:36.962Z,43.91
2023-02-26T10:25:16.360Z,44.04
2023-02-26T10:27:53.548Z,43.87
2023-02-26T10:30:38.179Z,44.93
2023-02-26T10:33:25.740Z,44.92
2023-02-26T10:36:08.963Z,44.29
2023-02-26T10:38:35.902Z,44.05
2023-02-26T10:41:09.137Z,43.88
2023-02-26T10:43:40.719Z,45.11
2023-02-26T10:46:32.430Z,44.54
2023-02-26T10:49:14.493Z,44.43
2023-02-26T10:51:41.084Z,44.74
2023-02-26T10:54:24.208Z,44.77
2023-02-26T10:56:50.726Z,44.67
2023-02-26T10:59:18.071Z,44.71
2023-02-26T11:01:45.332Z,45.24
2023-02-26T11:04:24.034Z,44.61
2023-02-26T11:06:57.368Z,44.41
2023-02-26T11:09:26.679Z,45.26
2023-02-26T11:12:05.217Z,44.13
2023-02-26T11:14:33.906Z,43.45
2023-02-26T11:17:16.690Z,44.21
2023-02-26T11:19:56.710Z,44.01
2023-02-26T11:22:27.515Z,43.20
2023-02-26T11:24:54.320Z,43.35
2023-02-26T11:27:25.839Z,43.90
2023-02-26T11:30:25.972Z,44.40
2023-02-26T11:32:56.617Z,43.53
2023-02-26T11:35:26.429Z,43.36
2023-02-26T11:37:59.819Z,44.16
2023-02-26T11:40:37.218Z,43.93
2023-02-26T11:43:08.665Z,41.60
2023-02-26T11:45:39.036Z,42.19
2023-02-26T11:48:20.232Z,42.07
2023-02-26T11:50:50.008Z,42.88
2023-02-26T11:53:23.905Z,41.44
2023-02-26T11:55:58.539Z,42.04
2023-02-26T11:58:25.503Z,42.55
2023-02-26T12:00:53.177Z,43.14
2023-02-26T12:03:28.713Z,43.68
2023-02-26T12:05:58.524Z,44.57
2023-02-26T12:08:42.162Z,43.88
2023-02-26T12:11:15.563Z,45.34
2023-02-26T12:14:20.639Z,47.73
2023-02-26T12:17:26.545Z,48.24
2023-02-26T12:20:19.751Z,45.91
2023-02-26T12:22:55.610Z,48.50
2023-02-26T12:25:42.492Z,46.18
2023-02-26T12:28:18.188Z,45.29
2023-02-26T12:31:05.356Z,45.73
2023-02-26T12:33:31.918Z,44.57
2023-02-26T12:36:23.193Z,43.26
2023-02-26T12:39:12.895Z,39.56
2023-02-26T12:41:58.105Z,39.42
2023-02-26T12:44:33.411Z,37.77
2023-02-26T12:47:15.046Z,37.30
2023-02-26T12:50:07.390Z,32.95
2023-02-26T12:53:14.141Z,32.06
2023-02-26T12:56:01.051Z,32.86
2023-02-26T12:58:39.104Z,34.18
2023-02-26T13:01:18.925Z,35.06
2023-02-26T13:04:09.662Z,35.97
2023-02-26T13:06:53.690Z,35.89
2023-02-26T13:09:35.631Z,33.29
2023-02-26T13:12:19.364Z,34.45
2023-02-26T13:14:52.156Z,30.88
2023-02-26T13:17:28.306Z,30.44
2023-02-26T13:20:11.111Z,28.47
2023-02-26T13:22:45.896Z,27.25
2023-02-26T13:25:30.883Z,27.73
2023-02-26T13:27:59.632Z,30.73
2023-02-26T13:30:32.546Z,35.74
2023-02-26T13:33:00.407Z,41.52
2023-02-26T13:35:29.832Z,44.42
2023-02-26T13:37:59.559Z,45.23
2023-02-26T13:40:54.699Z,45.57
2023-02-26T13:43:45.611Z,45.23
2023-02-26T13:46:42.101Z,44.50
2023-02-26T13:49:15.736Z,44.81
2023-02-26T13:51:47.138Z,43.56
2023-02-26T13:54:17.202Z,42.92
2023-02-26T13:56:48.831Z,42.33
2023-02-26T13:59:20.146Z,44.34
2023-02-26T14:01:47.258Z,44.14
2023-02-26T14:04:20.030Z,45.93
2023-02-26T14:06:54.791Z,44.87
2023-02-26T14:09:21.260Z,44.03
2023-02-26T14:12:03.705Z,42.90
2023-02-26T14:15:04.618Z,42.89
2023-02-26T14:17:33.997Z,43.05
2023-02-26T14:20:15.270Z,44.10
2023-02-26T14:22:43.272Z,43.74
2023-02-26T14:25:18.767Z,42.64
2023-02-26T14:27:47.910Z,44.33
2023-02-26T14:30:33.786Z,42.27
2023-02-26T14:33:00.251Z,40.55
2023-02-26T14:35:31.932Z,41.39
2023-02-26T14:38:08.411Z,38.80
2023-02-26T14:40:40.329Z,38.77
2023-02-26T14:43:14.196Z,37.38
2023-02-26T14:45:42.368Z,36.22
2023-02-26T14:48:15.097Z,36.08
2023-02-26T14:51:08.757Z,36.46
2023-02-26T14:53:58.619Z,36.67
2023-02-26T14:56:52.826Z,36.00
2023-02-26T14:59:49.792Z,40.64
2023-02-26T15:02:25.553Z,42.62
2023-02-26T15:05:02.341Z,41.47
2023-02-26T15:07:35.419Z,40.91
2023-02-26T15:10:24.685Z,41.88
2023-02-26T15:13:00.348Z,43.09
2023-02-26T15:16:00.957Z,41.97
2023-02-26T15:18:27.771Z,42.61
2023-02-26T15:21:17.721Z,40.80
2023-02-26T15:23:50.445Z,41.17
2023-02-26T15:26:22.998Z,38.36
2023-02-26T15:28:50.744Z,38.47
2023-02-26T15:31:20.809Z,37.43
2023-02-26T15:33:56.524Z,39.25
2023-02-26T15:36:24.509Z,39.43
2023-02-26T15:38:56.899Z,40.32
2023-02-26T15:41:26.035Z,40.32
2023-02-26T15:43:57.145Z,41.04
2023-02-26T15:46:30.041Z,40.35
2023-02-26T15:49:02.577Z,40.71
2023-02-26T15:51:29.212Z,40.03
2023-02-26T15:53:58.066Z,40.80
2023-02-26T15:56:28.536Z,41.12
2023-02-26T15:58:59.963Z,40.92
2023-02-26T16:01:28.742Z,40.81
2023-02-26T16:04:05.890Z,41.39
2023-02-26T16:06:42.154Z,41.52
2023-02-26T16:09:17.056Z,41.08
2023-02-26T16:11:44.568Z,40.74
2023-02-26T16:14:22.815Z,42.27
2023-02-26T16:16:53.256Z,42.91
2023-02-26T16:19:28.396Z,41.49
2023-02-26T16:21:56.020Z,41.28
2023-02-26T16:24:23.304Z,41.88
2023-02-26T16:26:54.104Z,42.25
2023-02-26T16:29:27.521Z,42.36
2023-02-26T16:31:57.079Z,42.12
2023-02-26T16:34:49.382Z,41.94
2023-02-26T16:37:28.443Z,42.60
2023-02-26T16:40:11.996Z,42.04
2023-02-26T16:43:03.659Z,42.53
2023-02-26T16:45:36.165Z,43.11
2023-02-26T16:48:22.749Z,42.55
2023-02-26T16:50:57.020Z,42.12
2023-02-26T16:53:30.146Z,42.46
2023-02-26T16:55:58.269Z,43.24
2023-02-26T16:58:25.183Z,43.16
2023-02-26T17:00:59.829Z,43.55
2023-02-26T17:03:27.747Z,42.23
2023-02-26T17:06:02.934Z,42.20
2023-02-26T17:08:36.502Z,42.08
2023-02-26T17:11:08.376Z,42.04
2023-02-26T17:13:36.581Z,42.34
2023-02-26T17:16:07.513Z,42.33
2023-02-26T17:18:34.113Z,42.74
2023-02-26T17:21:05.488Z,43.19
2023-02-26T17:23:37.282Z,42.88
2023-02-26T17:26:04.894Z,42.39
2023-02-26T17:28:40.404Z,42.35
2023-02-26T17:31:07.536Z,42.46
2023-02-26T17:33:35.573Z,42.41
2023-02-26T17:36:04.177Z,43.28
2023-02-26T17:38:33.308Z,43.57
2023-02-26T17:41:00.737Z,43.72
2023-02-26T17:43:28.065Z,42.89
2023-02-26T17:45:55.690Z,44.38
2023-02-26T17:48:22.702Z,46.20
2023-02-26T17:50:55.351Z,45.35
2023-02-26T17:53:27.256Z,46.51
2023-02-26T17:55:55.943Z,46.64
2023-02-26T17:58:26.225Z,46.94
2023-02-26T18:00:53.310Z,46.48
2023-02-26T18:03:20.495Z,48.64
2023-02-26T18:05:48.719Z,47.04
2023-02-26T18:08:24.509Z,47.75
2023-02-26T18:10:51.971Z,47.00
2023-02-26T18:13:19.100Z,46.62
2023-02-26T18:15:45.640Z,47.21
2023-02-26T18:18:14.272Z,47.81
2023-02-26T18:20:41.799Z,47.81
2023-02-26T18:23:08.477Z,47.13
2023-02-26T18:25:36.896Z,46.70
2023-02-26T18:28:04.923Z,46.52
2023-02-26T18:30:34.363Z,46.57
2023-02-26T18:33:01.163Z,47.16
2023-02-26T18:35:30.420Z,46.33
2023-02-26T18:37:58.202Z,45.74
2023-02-26T18:40:27.343Z,46.44
2023-02-26T18:42:53.940Z,46.50
2023-02-26T18:45:21.056Z,45.48
2023-02-26T18:47:48.348Z,45.69
2023-02-26T18:50:17.334Z,45.31
2023-02-26T18:52:44.503Z,45.68
2023-02-26T18:55:12.344Z,45.28
2023-02-26T18:57:40.428Z,45.43
2023-02-26T19:00:09.964Z,45.53
2023-02-26T19:02:36.646Z,45.35
2023-02-26T19:05:03.595Z,45.11
2023-02-26T19:07:30.788Z,45.78
2023-02-26T19:09:57.304Z,46.05
2023-02-26T19:12:24.491Z,45.31
2023-02-26T19:14:51.068Z,45.29
2023-02-26T19:17:18.093Z,45.16
2023-02-26T19:19:44.634Z,47.25
2023-02-26T19:22:16.138Z,46.49
2023-02-26T19:24:43.636Z,46.39
2023-02-26T19:27:11.726Z,46.90
2023-02-26T19:29:39.352Z,48.32
2023-02-26T19:32:07.881Z,47.28
2023-02-26T19:34:35.364Z,47.39
2023-02-26T19:37:02.223Z,47.55
2023-02-26T19:39:29.025Z,47.10
2023-02-26T19:41:55.577Z,48.18
2023-02-26T19:44:23.902Z,47.87
2023-02-26T19:46:51.276Z,48.07
2023-02-26T19:49:18.038Z,48.57
2023-02-26T19:51:45.100Z,47.53
2023-02-26T19:54:14.012Z,47.56
2023-02-26T19:56:42.471Z,48.04
2023-02-26T19:59:09.085Z,47.12
2023-02-26T20:01:35.775Z,48.62
2023-02-26T20:04:02.967Z,48.43
2023-02-26T20:06:29.552Z,47.77
2023-02-26T20:08:56.296Z,46.91
2023-02-26T20:11:23.005Z,46.47
2023-02-26T20:13:49.519Z,46.51
2023-02-26T20:16:16.277Z,47.72
2023-02-26T20:18:45.626Z,47.74
2023-02-26T20:21:13.196Z,46.67
2023-02-26T20:23:40.574Z,47.22
2023-02-26T20:26:10.544Z,46.50
2023-02-26T20:28:37.090Z,46.38
2023-02-26T20:31:04.844Z,46.69
2023-02-26T20:33:36.007Z,47.06
2023-02-26T20:36:03.242Z,47.22
2023-02-26T20:38:29.850Z,48.14
2023-02-26T20:40:59.466Z,48.81
2023-02-26T20:43:26.211Z,47.04
2023-02-26T20:45:55.087Z,47.48
2023-02-26T20:48:22.047Z,47.47
2023-02-26T20:50:49.624Z,47.47
2023-02-26T20:53:16.187Z,47.73
2023-02-26T20:55:42.968Z,48.21
2023-02-26T20:58:09.744Z,47.35
2023-02-26T21:00:36.328Z,47.32
2023-02-26T21:03:03.090Z,46.91
2023-02-26T21:05:29.623Z,46.86
2023-02-26T21:07:56.152Z,47.22
2023-02-26T21:10:22.763Z,46.97
2023-02-26T21:12:51.568Z,47.33
2023-02-26T21:15:18.798Z,46.68
2023-02-26T21:17:45.421Z,48.22
2023-02-26T21:20:17.281Z,47.79
2023-02-26T21:22:45.729Z,47.67
2023-02-26T21:25:12.913Z,47.68
2023-02-26T21:27:40.314Z,47.29
2023-02-26T21:30:08.488Z,47.63
2023-02-26T21:32:35.070Z,47.90
2023-02-26T21:35:01.662Z,47.17
2023-02-26T21:37:29.078Z,46.97
2023-02-26T21:39:55.862Z,46.72
2023-02-26T21:42:22.903Z,47.24
2023-02-26T21:44:49.715Z,47.13
2023-02-26T21:47:16.962Z,47.11
2023-02-26T21:49:44.368Z,46.43
2023-02-26T21:52:12.079Z,46.50
2023-02-26T21:54:38.636Z,46.44
2023-02-26T21:57:05.312Z,45.75
2023-02-26T21:59:31.877Z,45.90
2023-02-26T22:01:58.540Z,47.15
2023-02-26T22:04:25.360Z,47.28
2023-02-26T22:06:51.888Z,46.12
2023-02-26T22:09:21.890Z,46.41
2023-02-26T22:11:48.605Z,46.22
2023-02-26T22:14:15.269Z,46.90
2023-02-26T22:16:41.839Z,46.24
2023-02-26T22:19:08.605Z,46.69
2023-02-26T22:21:35.273Z,45.52
2023-02-26T22:24:03.637Z,46.05
2023-02-26T22:26:30.497Z,45.33
2023-02-26T22:28:59.655Z,46.34
2023-02-26T22:31:31.800Z,46.26
2023-02-26T22:33:58.809Z,45.89
2023-02-26T22:36:25.692Z,45.27
2023-02-26T22:38:52.226Z,45.68
2023-02-26T22:41:18.939Z,45.16
2023-02-26T22:43:45.452Z,45.52
2023-02-26T22:46:12.089Z,45.58
2023-02-26T22:48:38.655Z,45.31
2023-02-26T22:51:05.345Z,45.71
2023-02-26T22:53:31.919Z,46.97
2023-02-26T22:55:58.892Z,47.70
2023-02-26T22:58:25.423Z,48.07
2023-02-26T23:00:59.558Z,48.69
2023-02-26T23:03:26.304Z,49.16
2023-02-26T23:05:53.062Z,48.87
2023-02-26T23:08:19.588Z,49.63
2023-02-26T23:10:46.300Z,50.25
2023-02-26T23:13:12.870Z,50.09
2023-02-26T23:15:39.412Z,48.74
2023-02-26T23:18:06.005Z,48.57
2023-02-26T23:20:32.527Z,48.50
2023-02-26T23:22:59.060Z,47.94
2023-02-26T23:25:26.552Z,47.80
2023-02-26T23:27:53.469Z,49.03
2023-02-26T23:30:21.842Z,47.27
2023-02-26T23:32:48.345Z,48.26
2023-02-26T23:35:14.920Z,46.78
2023-02-26T23:37:41.705Z,46.57
2023-02-26T23:40:09.096Z,47.28
2023-02-26T23:42:35.683Z,47.55
2023-02-26T23:45:02.223Z,46.64
2023-02-26T23:47:28.738Z,45.93
2023-02-26T23:49:55.385Z,45.94
2023-02-26T23:52:24.880Z,47.56
2023-02-26T23:54:52.261Z,47.00
2023-02-26T23:57:18.822Z,46.05
2023-02-26T23:59:45.367Z,46.44
